LEAL/ALC METAR and TAF weather

Enter ICAO airport designator
Station Type Date Time Source
LEAL METAR 2019/09/21 22:00 UTC NOAA

LEAL 212200Z 25003KT 9999 FEW067 24/22 Q1013 NOSIG


Station Type Date Time Source
LEAL Decoded METAR 2019/09/21 22:00 UTC NOAA

Alicante / El Altet, Spain (LEAL) 38-17N 000-33W 31M
Sep 21, 2019 - 06:00 PM EDT / 2019.09.21 2200 UTC
Wind: from the WSW (250 degrees) at 3 MPH (3 KT):0
Visibility: greater than 7 mile(s):0
Sky conditions: mostly clear
Temperature: 75 F (24 C)
Dew Point: 71 F (22 C)
Relative Humidity: 88%
Pressure (altimeter): 29.91 in. Hg (1013 hPa)
ob: LEAL 212200Z 25003KT 9999 FEW067 24/22 Q1013 NOSIG
cycle: 22

Station Type Date Time Source
LEAL TAF 2019/09/21 18:27 UTC NOAA

TAF TAF LEAL 211700Z 2118/2218 16007KT 9999 FEW010 TX28/2213Z TN20/2206Z
TEMPO 2120/2122 04007KT
BECMG 2121/2123 25004KT PROB30
TEMPO 2200/2206 4000 BR BKN010
BECMG 2205/2207 29010KT
BECMG 2212/2214 19014KT

Example: see airport list